Boxtel, Netherlands
Current Conditions -  °F | °C
As of 10:06 AM on Monday 20 Oct 2014 (Local Time) from EHEH Reporting Station
Overcast Overcast  
Wind Chill: 57°   Ceiling: 3900
Heat Index: 57°   Visibility: 6mi
Dew Point: 54°   Wind: 13mph
Humidity: 88%   Direction: 220°SW
Pressure: 30.03"   Gusts: NA
Location:  51.59°N, 5.33°E
Report Text: EHEH 200806Z AUTO 22011KT 9999 FEW012 OVC039 14/12 Q1017 BLU 22012KT 9999 BKN030 BKN035 TEMPO DZ FEW011 BKN015 BKN021
Loading
Personal Weather Stations






























Interactive Weather Map
Tropical Storm Tracking
New forecast layout! Learn more

10-Day Weather Forecast

Advertisements
Track Severe Weather on mobile